createdAt,value
2019-01-11T00:00:31.038Z,14.73
2019-01-11T00:02:57.024Z,12.93
2019-01-11T00:05:22.966Z,15.57
2019-01-11T00:07:48.957Z,13.00
2019-01-11T00:10:14.926Z,11.17
2019-01-11T00:12:41.177Z,10.37
2019-01-11T00:15:07.367Z,12.13
2019-01-11T00:17:33.322Z,10.30
2019-01-11T00:20:03.634Z,11.67
2019-01-11T00:22:29.603Z,10.70
2019-01-11T00:24:57.470Z,9.40
2019-01-11T00:27:23.626Z,9.13
2019-01-11T00:29:49.820Z,12.03
2019-01-11T00:32:15.774Z,13.03
2019-01-11T00:34:41.721Z,13.17
2019-01-11T00:37:07.700Z,15.57
2019-01-11T00:39:33.658Z,16.23
2019-01-11T00:41:59.622Z,13.00
2019-01-11T00:44:26.296Z,29.43
2019-01-11T00:46:52.287Z,30.10
2019-01-11T00:49:19.431Z,30.50
2019-01-11T00:51:45.426Z,38.80
2019-01-11T00:54:11.458Z,27.50
2019-01-11T00:56:38.586Z,17.63
2019-01-11T00:59:05.105Z,8.80
2019-01-11T01:01:31.048Z,9.63
2019-01-11T01:03:56.997Z,9.47
2019-01-11T01:06:23.519Z,8.97
2019-01-11T01:08:49.476Z,9.27
2019-01-11T01:11:15.421Z,8.30
2019-01-11T01:13:41.407Z,10.37
2019-01-11T01:16:07.356Z,8.10
2019-01-11T01:18:33.304Z,7.40
2019-01-11T01:20:59.494Z,7.13
2019-01-11T01:23:25.750Z,5.63
2019-01-11T01:25:52.215Z,4.97
2019-01-11T01:28:20.143Z,5.30
2019-01-11T01:30:46.098Z,6.13
2019-01-11T01:33:14.367Z,7.43
2019-01-11T01:35:40.358Z,6.03
2019-01-11T01:38:06.314Z,6.33
2019-01-11T01:40:32.342Z,4.33
2019-01-11T01:43:00.934Z,3.87
2019-01-11T01:45:26.969Z,4.47
2019-01-11T01:47:54.723Z,5.40
2019-01-11T01:50:20.758Z,3.93
2019-01-11T01:52:46.713Z,4.07
2019-01-11T01:55:14.183Z,3.73
2019-01-11T01:57:40.171Z,3.77
2019-01-11T02:00:09.823Z,4.40
2019-01-11T02:02:35.781Z,5.30
2019-01-11T02:05:02.684Z,5.53
2019-01-11T02:07:28.635Z,4.43
2019-01-11T02:09:54.595Z,3.87
2019-01-11T02:12:20.613Z,3.47
2019-01-11T02:14:46.556Z,3.87
2019-01-11T02:17:13.920Z,5.90
2019-01-11T02:19:39.926Z,3.60
2019-01-11T02:22:06.088Z,3.70
2019-01-11T02:24:32.246Z,3.40
2019-01-11T02:26:58.528Z,3.37
2019-01-11T02:29:24.888Z,4.37
2019-01-11T02:31:51.137Z,3.27
2019-01-11T02:34:17.151Z,4.50
2019-01-11T02:36:45.027Z,2.87
2019-01-11T02:39:10.964Z,5.00
2019-01-11T02:41:36.939Z,3.83
2019-01-11T02:44:03.936Z,3.97
2019-01-11T02:46:29.874Z,4.97
2019-01-11T02:48:55.874Z,3.10
2019-01-11T02:51:21.828Z,3.40
2019-01-11T02:53:47.784Z,3.63
2019-01-11T02:56:15.388Z,2.90
2019-01-11T02:58:41.357Z,3.23
2019-01-11T03:01:07.301Z,2.90
2019-01-11T03:03:34.783Z,3.77
2019-01-11T03:06:00.748Z,3.93
2019-01-11T03:08:27.520Z,2.23
2019-01-11T03:10:53.514Z,2.00
2019-01-11T03:13:21.366Z,3.03
2019-01-11T03:15:47.328Z,2.83
2019-01-11T03:18:13.338Z,3.63
2019-01-11T03:20:39.291Z,4.47
2019-01-11T03:23:05.252Z,3.60
2019-01-11T03:25:31.226Z,3.60
2019-01-11T03:27:57.211Z,2.77
2019-01-11T03:30:23.958Z,1.77
2019-01-11T03:32:51.850Z,3.13
2019-01-11T03:35:18.609Z,3.00
2019-01-11T03:37:46.280Z,2.73
2019-01-11T03:40:14.594Z,2.87
2019-01-11T03:42:40.543Z,2.57
2019-01-11T03:45:10.223Z,3.73
2019-01-11T03:47:36.303Z,3.97
2019-01-11T03:50:05.552Z,2.77
2019-01-11T03:52:31.498Z,3.07
2019-01-11T03:54:57.493Z,8.40
2019-01-11T03:57:25.258Z,6.20
2019-01-11T03:59:51.215Z,5.47
2019-01-11T04:02:17.237Z,4.37
2019-01-11T04:04:43.179Z,3.33
2019-01-11T04:07:09.135Z,4.30
2019-01-11T04:09:35.111Z,4.10
2019-01-11T04:12:01.076Z,3.00
2019-01-11T04:14:27.021Z,4.60
2019-01-11T04:16:53.012Z,4.43
2019-01-11T04:19:18.981Z,3.83
2019-01-11T04:21:46.832Z,3.87
2019-01-11T04:24:14.769Z,3.33
2019-01-11T04:26:40.732Z,3.67
2019-01-11T04:29:06.983Z,4.27
2019-01-11T04:31:32.980Z,3.00
2019-01-11T04:33:58.951Z,4.00
2019-01-11T04:36:24.918Z,3.37
2019-01-11T04:38:51.099Z,2.70
2019-01-11T04:41:17.051Z,3.40
2019-01-11T04:43:43.006Z,2.50
2019-01-11T04:46:09.669Z,2.27
2019-01-11T04:48:35.614Z,1.90
2019-01-11T04:51:03.574Z,2.00
2019-01-11T04:53:29.563Z,2.20
2019-01-11T04:55:55.544Z,2.47
2019-01-11T04:58:21.516Z,3.83
2019-01-11T05:00:47.743Z,5.43
2019-01-11T05:03:13.695Z,3.33
2019-01-11T05:05:39.646Z,3.10
2019-01-11T05:08:06.725Z,3.07
2019-01-11T05:10:32.672Z,2.03
2019-01-11T05:13:00.550Z,3.47
2019-01-11T05:15:28.331Z,3.43
2019-01-11T05:17:55.490Z,3.17
2019-01-11T05:20:21.432Z,4.10
2019-01-11T05:22:49.339Z,2.80
2019-01-11T05:25:17.286Z,2.20
2019-01-11T05:27:43.246Z,5.97
2019-01-11T05:30:14.779Z,3.63
2019-01-11T05:32:40.843Z,5.63
2019-01-11T05:35:08.091Z,5.47
2019-01-11T05:37:34.078Z,3.20
2019-01-11T05:40:01.529Z,8.53
2019-01-11T05:42:27.586Z,4.70
2019-01-11T05:44:54.679Z,5.40
2019-01-11T05:47:20.951Z,2.87
2019-01-11T05:49:46.892Z,5.70
2019-01-11T05:52:12.924Z,2.27
2019-01-11T05:54:38.876Z,4.87
2019-01-11T05:57:05.227Z,6.13
2019-01-11T05:59:31.239Z,5.63
2019-01-11T06:01:57.375Z,4.43
2019-01-11T06:04:30.823Z,4.83
2019-01-11T06:07:04.610Z,2.40
2019-01-11T06:09:30.564Z,2.83
2019-01-11T06:11:56.526Z,3.33
2019-01-11T06:14:22.548Z,4.40
2019-01-11T06:16:48.500Z,5.67
2019-01-11T06:19:14.455Z,4.20
2019-01-11T06:21:40.458Z,5.77
2019-01-11T06:24:07.413Z,4.67
2019-01-11T06:26:33.367Z,5.23
2019-01-11T06:28:59.365Z,5.90
2019-01-11T06:31:25.334Z,4.33
2019-01-11T06:33:51.306Z,5.13
2019-01-11T06:36:17.829Z,7.10
2019-01-11T06:38:43.779Z,7.03
2019-01-11T06:41:09.833Z,5.13
2019-01-11T06:43:35.838Z,7.23
2019-01-11T06:46:01.789Z,6.53
2019-01-11T06:48:31.055Z,6.50
2019-01-11T06:50:57.145Z,5.60
2019-01-11T06:53:23.257Z,6.87
2019-01-11T06:55:49.320Z,5.13
2019-01-11T06:58:15.335Z,5.37
2019-01-11T07:00:41.706Z,6.40
2019-01-11T07:03:07.655Z,5.33
2019-01-11T07:05:35.253Z,12.13
2019-01-11T07:08:01.201Z,81.17
2019-01-11T07:10:27.160Z,79.40
2019-01-11T07:12:53.217Z,23.57
2019-01-11T07:15:19.166Z,8.07
2019-01-11T07:17:45.447Z,9.60
2019-01-11T07:20:13.470Z,8.97
2019-01-11T07:22:39.761Z,8.50
2019-01-11T07:25:08.509Z,7.97
2019-01-11T07:27:36.419Z,7.53
2019-01-11T07:30:06.204Z,7.33
2019-01-11T07:32:32.661Z,8.20
2019-01-11T07:34:58.659Z,5.63
2019-01-11T07:37:24.611Z,8.07
2019-01-11T07:39:51.329Z,9.73
2019-01-11T07:42:17.345Z,7.40
2019-01-11T07:44:43.294Z,7.93
2019-01-11T07:47:09.256Z,7.00
2019-01-11T07:49:35.704Z,6.77
2019-01-11T07:52:05.252Z,6.63
2019-01-11T07:54:31.219Z,8.13
2019-01-11T07:56:57.660Z,9.00
2019-01-11T07:59:23.616Z,10.30
2019-01-11T08:01:49.766Z,18.93
2019-01-11T08:04:15.805Z,9.87
2019-01-11T08:06:41.760Z,6.40
2019-01-11T08:09:07.920Z,9.00
2019-01-11T08:11:33.911Z,10.50
2019-01-11T08:13:59.880Z,8.47
2019-01-11T08:16:25.822Z,8.97
2019-01-11T08:18:52.108Z,9.37
2019-01-11T08:21:18.056Z,7.03
2019-01-11T08:23:44.004Z,7.13
2019-01-11T08:26:10.041Z,7.53
2019-01-11T08:28:36.045Z,7.57
2019-01-11T08:31:02.211Z,4.87
2019-01-11T08:33:30.138Z,9.57
2019-01-11T08:35:56.171Z,4.40
2019-01-11T08:38:22.830Z,10.07
2019-01-11T08:40:49.190Z,8.43
2019-01-11T08:43:15.143Z,9.67
2019-01-11T08:45:41.509Z,10.53
2019-01-11T08:48:07.628Z,9.00
2019-01-11T08:50:33.669Z,19.50
2019-01-11T08:53:00.417Z,78.50
2019-01-11T08:55:28.327Z,30.47
2019-01-11T08:57:54.393Z,7.97
2019-01-11T09:00:20.365Z,11.47
2019-01-11T09:02:46.503Z,12.27
2019-01-11T09:05:12.852Z,14.87
2019-01-11T09:07:39.199Z,9.00
2019-01-11T09:10:09.036Z,10.67
2019-01-11T09:12:35.203Z,7.87
2019-01-11T09:15:02.268Z,5.87
2019-01-11T09:17:28.303Z,8.40
2019-01-11T09:19:54.253Z,5.87
2019-01-11T09:22:20.514Z,9.03
2019-01-11T09:24:48.410Z,7.93
2019-01-11T09:27:14.481Z,72.70
2019-01-11T09:29:40.468Z,21.67
2019-01-11T09:32:06.888Z,32.53
2019-01-11T09:34:33.144Z,18.67
2019-01-11T09:36:59.270Z,10.27
2019-01-11T09:39:25.269Z,10.43
2019-01-11T09:41:51.230Z,12.73
2019-01-11T09:44:19.181Z,7.37
2019-01-11T09:46:45.187Z,12.27
2019-01-11T09:49:11.138Z,8.60
2019-01-11T09:51:38.409Z,9.73
2019-01-11T09:54:05.227Z,6.57
2019-01-11T09:56:31.195Z,8.60
2019-01-11T09:58:57.158Z,6.77
2019-01-11T10:01:23.262Z,8.93
2019-01-11T10:03:49.222Z,10.53
2019-01-11T10:06:15.288Z,10.30
2019-01-11T10:08:41.284Z,6.57
2019-01-11T10:11:07.354Z,11.20
2019-01-11T10:13:33.563Z,9.37
2019-01-11T10:15:59.663Z,8.40
2019-01-11T10:18:26.015Z,11.40
2019-01-11T10:20:51.961Z,10.63
2019-01-11T10:23:18.389Z,12.33
2019-01-11T10:25:44.298Z,7.83
2019-01-11T10:28:10.274Z,17.87
2019-01-11T10:30:36.277Z,9.63
2019-01-11T10:33:02.432Z,9.60
2019-01-11T10:35:28.387Z,9.67
2019-01-11T10:37:54.434Z,18.80
2019-01-11T10:40:20.384Z,16.10
2019-01-11T10:42:46.420Z,8.53
2019-01-11T10:45:17.984Z,6.53
2019-01-11T10:47:43.938Z,5.97
2019-01-11T10:50:13.620Z,8.13
2019-01-11T10:52:40.780Z,15.57
2019-01-11T10:55:09.960Z,6.77
2019-01-11T10:57:35.919Z,13.53
2019-01-11T11:00:06.880Z,7.23
2019-01-11T11:02:32.850Z,8.43
2019-01-11T11:04:58.804Z,11.50
2019-01-11T11:07:24.956Z,19.57
2019-01-11T11:09:51.907Z,27.40
2019-01-11T11:12:17.887Z,23.67
2019-01-11T11:14:43.860Z,8.57
2019-01-11T11:17:09.833Z,5.47
2019-01-11T11:19:35.818Z,8.50
2019-01-11T11:22:02.739Z,8.57
2019-01-11T11:24:28.828Z,10.77
2019-01-11T11:26:54.765Z,6.50
2019-01-11T11:29:20.759Z,9.30
2019-01-11T11:31:46.719Z,10.23
2019-01-11T11:34:12.674Z,9.07
2019-01-11T11:36:38.672Z,8.60
2019-01-11T11:39:08.232Z,9.87
2019-01-11T11:41:34.191Z,8.73
2019-01-11T11:44:00.226Z,8.30
2019-01-11T11:46:26.183Z,8.00
2019-01-11T11:48:52.152Z,9.27
2019-01-11T11:51:18.136Z,19.23
2019-01-11T11:53:45.008Z,13.70
2019-01-11T11:56:10.961Z,13.60
2019-01-11T11:58:37.302Z,20.43
2019-01-11T12:01:05.373Z,12.73
2019-01-11T12:03:31.337Z,11.10
2019-01-11T12:05:59.272Z,9.23
2019-01-11T12:08:25.228Z,7.30
2019-01-11T12:10:51.471Z,7.73
2019-01-11T12:13:17.461Z,11.57
2019-01-11T12:15:43.408Z,7.93
2019-01-11T12:18:09.567Z,7.30
2019-01-11T12:20:36.060Z,13.87
2019-01-11T12:23:02.123Z,7.03
2019-01-11T12:25:28.219Z,7.23
2019-01-11T12:27:54.248Z,11.47
2019-01-11T12:30:20.224Z,13.67
2019-01-11T12:32:46.188Z,7.07
2019-01-11T12:35:12.574Z,15.90
2019-01-11T12:37:38.837Z,72.40
2019-01-11T12:40:08.012Z,17.90
2019-01-11T12:42:34.132Z,79.13
2019-01-11T12:45:04.224Z,11.90
2019-01-11T12:47:30.179Z,9.10
2019-01-11T12:49:57.000Z,6.73
2019-01-11T12:52:22.961Z,5.47
2019-01-11T12:54:49.885Z,6.77
2019-01-11T12:57:16.412Z,9.80
2019-01-11T12:59:42.669Z,6.43
2019-01-11T13:02:08.853Z,7.70
2019-01-11T13:04:34.875Z,6.20
2019-01-11T13:07:00.986Z,9.23
2019-01-11T13:09:27.003Z,8.43
2019-01-11T13:11:53.526Z,10.37
2019-01-11T13:14:19.690Z,18.30
2019-01-11T13:16:45.849Z,12.37
2019-01-11T13:19:12.144Z,7.73
2019-01-11T13:21:38.101Z,14.67
2019-01-11T13:24:04.451Z,45.07
2019-01-11T13:26:30.571Z,43.20
2019-01-11T13:28:57.450Z,26.07
2019-01-11T13:31:23.732Z,13.50
2019-01-11T13:33:49.762Z,11.33
2019-01-11T13:36:17.615Z,9.80
2019-01-11T13:38:43.575Z,6.10
2019-01-11T13:41:11.996Z,12.20
2019-01-11T13:43:37.949Z,8.90
2019-01-11T13:46:04.095Z,5.47
2019-01-11T13:48:31.232Z,6.77
2019-01-11T13:50:57.263Z,15.00
2019-01-11T13:53:23.217Z,11.73
2019-01-11T13:55:49.344Z,7.23
2019-01-11T13:58:15.495Z,6.63
2019-01-11T14:00:41.470Z,7.90
2019-01-11T14:03:07.550Z,25.20
2019-01-11T14:05:33.587Z,48.73
2019-01-11T14:07:59.833Z,39.10
2019-01-11T14:10:26.027Z,40.93
2019-01-11T14:12:52.014Z,15.70
2019-01-11T14:15:18.091Z,4.90
2019-01-11T14:17:44.111Z,7.30
2019-01-11T14:20:10.870Z,10.10
2019-01-11T14:22:37.244Z,5.97
2019-01-11T14:25:08.387Z,10.30
2019-01-11T14:27:34.328Z,9.57
2019-01-11T14:30:00.281Z,15.57
2019-01-11T14:32:26.265Z,15.70
2019-01-11T14:34:52.241Z,13.13
2019-01-11T14:37:18.207Z,14.23
2019-01-11T14:39:44.219Z,22.83
2019-01-11T14:42:10.372Z,6.53
2019-01-11T14:44:36.331Z,10.33
2019-01-11T14:47:02.441Z,13.83
2019-01-11T14:49:28.390Z,17.10
2019-01-11T14:51:54.357Z,39.30
2019-01-11T14:54:20.343Z,62.93
2019-01-11T14:56:46.371Z,44.40
2019-01-11T14:59:12.310Z,53.67
2019-01-11T15:01:39.684Z,31.37
2019-01-11T15:04:05.700Z,22.90
2019-01-11T15:06:31.651Z,14.00
2019-01-11T15:08:57.656Z,16.50
2019-01-11T15:11:23.618Z,21.10
2019-01-11T15:13:52.387Z,22.43
2019-01-11T15:16:18.479Z,19.33
2019-01-11T15:18:44.507Z,11.70
2019-01-11T15:21:10.484Z,25.20
2019-01-11T15:23:36.523Z,11.27
2019-01-11T15:26:02.876Z,12.90
2019-01-11T15:28:28.842Z,23.17
2019-01-11T15:30:55.443Z,7.73
2019-01-11T15:33:21.415Z,17.93
2019-01-11T15:35:48.531Z,8.83
2019-01-11T15:38:18.161Z,22.57
2019-01-11T15:40:44.150Z,8.47
2019-01-11T15:43:10.300Z,39.77
2019-01-11T15:45:36.436Z,26.57
2019-01-11T15:48:02.704Z,30.57
2019-01-11T15:50:45.118Z,12.30
2019-01-11T15:53:11.094Z,26.07
2019-01-11T15:55:37.104Z,32.30
2019-01-11T15:58:04.107Z,27.57
2019-01-11T16:00:30.360Z,27.67
2019-01-11T16:02:57.232Z,19.20
2019-01-11T16:05:23.258Z,23.43
2019-01-11T16:07:50.761Z,27.37
2019-01-11T16:10:18.891Z,40.00
2019-01-11T16:12:45.881Z,36.60
2019-01-11T16:15:18.506Z,31.47
2019-01-11T16:17:46.873Z,26.30
2019-01-11T16:20:14.981Z,49.17
2019-01-11T16:22:41.344Z,27.73
2019-01-11T16:25:09.212Z,29.67
2019-01-11T16:27:39.488Z,39.50
2019-01-11T16:30:13.824Z,49.10
2019-01-11T16:32:39.994Z,27.40
2019-01-11T16:35:06.454Z,31.67
2019-01-11T16:37:32.551Z,84.00
2019-01-11T16:39:58.811Z,64.23
2019-01-11T16:42:24.774Z,35.10
2019-01-11T16:44:50.754Z,26.97
2019-01-11T16:47:17.795Z,19.70
2019-01-11T16:49:45.917Z,14.23
2019-01-11T16:52:15.285Z,13.10
2019-01-11T16:54:39.752Z,19.20
2019-01-11T16:57:05.728Z,29.60
2019-01-11T16:59:31.893Z,29.27
2019-01-11T17:01:58.009Z,17.07
2019-01-11T17:04:24.014Z,23.83
2019-01-11T17:06:49.972Z,17.93
2019-01-11T17:09:15.996Z,15.80
2019-01-11T17:11:42.000Z,20.90
2019-01-11T17:14:08.012Z,18.73
2019-01-11T17:16:34.005Z,16.63
2019-01-11T17:19:00.271Z,18.90
2019-01-11T17:21:26.236Z,19.13
2019-01-11T17:23:53.496Z,23.23
2019-01-11T17:26:19.719Z,23.13
2019-01-11T17:28:46.044Z,24.03
2019-01-11T17:31:12.087Z,29.30
2019-01-11T17:33:38.243Z,28.10
2019-01-11T17:36:04.879Z,37.27
2019-01-11T17:38:30.895Z,37.73
2019-01-11T17:40:57.077Z,35.73
2019-01-11T17:43:23.044Z,35.60
2019-01-11T17:45:49.466Z,89.20
2019-01-11T17:48:15.436Z,31.67
2019-01-11T17:50:41.396Z,20.97
2019-01-11T17:53:07.432Z,23.77
2019-01-11T17:55:35.572Z,26.40
2019-01-11T17:58:01.748Z,31.17
2019-01-11T18:00:28.736Z,19.90
2019-01-11T18:02:56.067Z,17.03
2019-01-11T18:05:22.035Z,16.37
2019-01-11T18:07:48.147Z,19.57
2019-01-11T18:10:14.314Z,14.63
2019-01-11T18:12:40.570Z,20.70
2019-01-11T18:15:12.475Z,15.57
2019-01-11T18:17:38.432Z,78.30
2019-01-11T18:20:13.084Z,35.63
2019-01-11T18:22:39.194Z,56.50
2019-01-11T18:25:05.833Z,35.97
2019-01-11T18:27:32.039Z,17.73
2019-01-11T18:29:58.030Z,15.20
2019-01-11T18:32:23.999Z,16.80
2019-01-11T18:34:49.960Z,18.23
2019-01-11T18:37:16.063Z,14.70
2019-01-11T18:39:42.443Z,13.60
2019-01-11T18:42:08.421Z,14.33
2019-01-11T18:44:34.790Z,16.00
2019-01-11T18:47:00.792Z,15.70
2019-01-11T18:49:26.748Z,13.37
2019-01-11T18:51:52.814Z,11.23
2019-01-11T18:54:18.809Z,8.37
2019-01-11T18:56:44.786Z,10.70
2019-01-11T18:59:13.675Z,10.20
2019-01-11T19:01:39.714Z,13.47
2019-01-11T19:04:05.678Z,10.43
2019-01-11T19:06:31.686Z,11.00
2019-01-11T19:08:57.688Z,11.27
2019-01-11T19:11:23.827Z,9.43
2019-01-11T19:13:49.816Z,9.33
2019-01-11T19:16:15.955Z,8.10
2019-01-11T19:18:41.931Z,8.30
2019-01-11T19:21:10.217Z,9.90
2019-01-11T19:23:36.355Z,12.97
2019-01-11T19:26:02.947Z,12.40
2019-01-11T19:28:28.946Z,13.43
2019-01-11T19:30:54.953Z,13.30
2019-01-11T19:33:21.035Z,15.17
2019-01-11T19:35:47.044Z,15.20
2019-01-11T19:38:12.994Z,15.70
2019-01-11T19:40:38.952Z,17.43
2019-01-11T19:43:05.036Z,13.83
2019-01-11T19:45:30.994Z,14.33
2019-01-11T19:47:57.506Z,18.53
2019-01-11T19:50:24.083Z,12.70
2019-01-11T19:52:52.417Z,17.70
2019-01-11T19:55:18.911Z,14.97
2019-01-11T19:57:45.062Z,17.97
2019-01-11T20:00:15.060Z,16.57
2019-01-11T20:02:41.292Z,15.00
2019-01-11T20:05:08.764Z,16.83
2019-01-11T20:07:34.939Z,16.30
2019-01-11T20:10:05.963Z,15.63
2019-01-11T20:12:32.042Z,16.30
2019-01-11T20:15:00.215Z,26.17
2019-01-11T20:17:26.288Z,26.77
2019-01-11T20:19:52.245Z,26.70
2019-01-11T20:22:18.225Z,24.73
2019-01-11T20:24:48.355Z,19.13
2019-01-11T20:27:14.721Z,14.00
2019-01-11T20:29:40.907Z,16.37
2019-01-11T20:32:07.027Z,10.73
2019-01-11T20:34:33.492Z,14.57
2019-01-11T20:37:03.279Z,18.40
2019-01-11T20:39:29.392Z,21.53
2019-01-11T20:41:55.492Z,23.27
2019-01-11T20:44:21.458Z,22.10
2019-01-11T20:46:47.596Z,21.57
2019-01-11T20:49:14.405Z,23.30
2019-01-11T20:51:40.377Z,26.90
2019-01-11T20:54:06.584Z,30.23
2019-01-11T20:56:33.160Z,27.10
2019-01-11T20:58:59.135Z,28.17
2019-01-11T21:01:25.230Z,26.43
2019-01-11T21:03:51.785Z,30.87
2019-01-11T21:06:17.965Z,29.03
2019-01-11T21:08:43.998Z,30.57
2019-01-11T21:11:09.967Z,25.23
2019-01-11T21:13:35.940Z,22.73
2019-01-11T21:16:03.374Z,18.73
2019-01-11T21:18:29.643Z,18.07
2019-01-11T21:20:55.617Z,15.80
2019-01-11T21:23:22.320Z,13.73
2019-01-11T21:25:51.072Z,11.33
2019-01-11T21:28:17.056Z,13.40
2019-01-11T21:30:43.397Z,12.23
2019-01-11T21:33:09.404Z,16.43
2019-01-11T21:35:35.396Z,12.70
2019-01-11T21:38:01.417Z,16.43
2019-01-11T21:40:27.597Z,19.07
2019-01-11T21:42:53.876Z,24.20
2019-01-11T21:45:21.092Z,45.40
2019-01-11T21:47:47.362Z,66.57
2019-01-11T21:50:15.966Z,39.90
2019-01-11T21:52:42.112Z,50.40
2019-01-11T21:55:09.086Z,34.07
2019-01-11T21:57:35.048Z,31.83
2019-01-11T22:00:01.467Z,33.23
2019-01-11T22:02:27.418Z,35.10
2019-01-11T22:04:53.810Z,33.60
2019-01-11T22:07:19.916Z,34.67
2019-01-11T22:09:45.899Z,32.10
2019-01-11T22:12:13.043Z,29.97
2019-01-11T22:14:39.072Z,26.17
2019-01-11T22:17:05.285Z,33.53
2019-01-11T22:19:31.248Z,35.30
2019-01-11T22:21:57.443Z,35.07
2019-01-11T22:24:23.398Z,27.23
2019-01-11T22:26:49.504Z,25.47
2019-01-11T22:29:17.481Z,25.70
2019-01-11T22:31:43.480Z,13.97
2019-01-11T22:34:09.593Z,18.33
2019-01-11T22:36:35.615Z,14.63
2019-01-11T22:39:02.592Z,20.70
2019-01-11T22:41:28.969Z,23.30
2019-01-11T22:43:54.955Z,28.17
2019-01-11T22:46:20.919Z,41.90
2019-01-11T22:48:46.877Z,49.10
2019-01-11T22:51:13.695Z,57.90
2019-01-11T22:53:39.658Z,56.70
2019-01-11T22:56:05.609Z,42.77
2019-01-11T22:58:31.644Z,43.47
2019-01-11T23:01:01.399Z,74.30
2019-01-11T23:03:31.155Z,48.77
2019-01-11T23:06:08.896Z,35.00
2019-01-11T23:08:29.836Z,43.80
2019-01-11T23:11:29.702Z,25.67
2019-01-11T23:13:55.656Z,30.07
2019-01-11T23:16:25.409Z,29.57
2019-01-11T23:18:53.921Z,31.87
2019-01-11T23:21:20.385Z,44.33
2019-01-11T23:23:46.360Z,50.83
2019-01-11T23:26:12.368Z,59.47
2019-01-11T23:28:38.918Z,57.33
2019-01-11T23:31:05.679Z,54.10
2019-01-11T23:33:32.105Z,43.83
2019-01-11T23:35:58.393Z,41.13
2019-01-11T23:38:24.662Z,39.87
2019-01-11T23:40:50.834Z,34.93
2019-01-11T23:43:16.799Z,30.63
2019-01-11T23:45:42.883Z,32.33
2019-01-11T23:48:08.868Z,28.97
2019-01-11T23:50:34.827Z,25.73
2019-01-11T23:53:00.873Z,23.67
2019-01-11T23:55:27.181Z,23.03
2019-01-11T23:57:53.127Z,25.53
